cliquez pour ajouter le site Runraid à vos favoris  English version (google)  Retour à l'accueil Ecrire à l'auteur du site Runraid : Michel Jourdan



Les prochaines courses


Les derniers résultats

cliquez pour visualiser la page complète relatant la chronologie des éruptions du Piton de la Fournaise
éruptions Piton de la Fournaise


Ile de La Réunion

 Diagonale des Fous 

Ecrire au créateur du site : Michel Jourdan
Contact


2010-01-24 - Ice Trail 2010 15 km

Pour consulter le palmarès d'un coureur, un clic sur son nom !

Vous avez des remarques, corrections, ... sur ces résultats , un clic sur --> pour me transmettre toute information concernant les classements


Ice Trail 2010 15 km - 2010 : classement des 619 finishers
Place Nom Temps Cat. Club Sexe Clt/cat.
Place Nom Temps Cat. Club Sexe Clt/cat.
1 BERTRES Vincent 01:07:37 SEM - M 1977
2 HAMON Maxime 01:08:50 SEM C.C. TAVERNY M 1162
3 MAGONDEAUX Bruno 01:11:21 V1M AC BEAUCHAMP M 1er V1M 1404
4 MARTINOL Eddy 01:12:12 SEM - M 1211
5 BELARBI Jamal 01:12:13 V1M CC TAVERNY ATHLETISM M 2eme V1M 1781
6 ZEPPARELLI Thierry 01:12:56 V1M SO HOUILLES TRIATHLO M 3eme V1M 1569
7 FAVREAU Nathalie 01:15:46 SEF ASDIF F 1ere F 1727
8 BOYER Arnaud 01:15:46 SEM TEAM MeGAPHONE M 1684
9 EVRARD Christian 01:16:18 V1M Saint Leu d'Esserent M 1933
10 GUILLIN Patrick 01:18:12 V1M - M 1917
11 MELLAS Rachid 01:18:40 V1M ASDIF M 1732
12 MOREAU Thomas 01:18:48 SEM POMPIERS DE PARIS M 1178
13 BOUTINEAU Gregory 01:20:04 SEM DOMONT ATHLETISME M 1582
14 SALLE Edouard 01:20:35 V1M - M 925
15 LOBLIE Alexandre 01:20:37 SEM - M 922
16 CHERY Hugo 01:20:51 SEM - M 1019
17 SABATIER Antoine 01:21:15 SEM CCSC EDF GDF M 1361
18 THIEURMEL Damien 01:21:22 SEM SPORT NATURE LOIRE E M 1823
19 BIE Nicolas 01:21:24 SEM SCHNEIDER-ELECTRIC M 1250
20 SANSON Chrsitophe 01:21:31 SEM ASR TRAIL 78 M 1386
21 AUPIN Patrick 01:21:35 V1M - M 1067
22 PAPON Clement 01:21:37 SEM - M 1512
23 AJORQUE Axel 01:21:42 V1M S.O. ROSNY-SOUS-BOIS M 1113
24 PEUREUX Pierre 01:21:44 SEM - M 1738
25 MORELLA Emmanuel 01:21:50 V1M RUNNINGEVASION 95 M 1290
26 PRIOUX Marie 01:21:50 SEF DOMONT ATHLETISME F 2eme F 1584
27 CHUBERRE Stephane 01:21:52 SEM CIV CHEVREUSE M 1725
28 COUSSY Jerome 01:21:52 SEM - M 1629
29 MARRET Olivier 01:21:52 V1M CIV CHEVREUSE M 1722
30 PERRIN Sylvain 01:22:04 SEM - M 1635
31 TRIDEAU Guillaume 01:22:17 SEM - M 1412
32 COUPRIE Sebastien 01:22:22 SEM - M 1071
33 TETU Florian 01:22:23 ESM USCM MAGNY-EN-VEXIN M 1128
34 LAULHEY David 01:22:29 SEM SCHNEIDER-ELECTRIC M 1519
35 DELBECQUE Vincent 01:22:31 SEM GeNeRATION RAIDS M 1175
36 CANNICCIONI Stephane 01:22:34 SEM TEAM RAIDLIGHT M 1811
37 KERIGNARD Erwan 01:22:34 SEM - M 884
38 DESSERT Frederic 01:22:35 SEM - M 923
39 LEFORT Pascal 01:22:39 V1M CC TAVERNY ATHLETISM M 1077
40 BAILLY Alexandre 01:22:41 SEM U NE 95 ATHLETISME M 1459
41 LEMARIE Charles 01:22:42 SEM - M 1890
42 TORA Fabien 01:22:43 SEM ASCCRAMBOUILLET M 1503
43 ELIES J Francois 01:22:44 V1M SCHNEIDER ELECTRIC M 1546
44 ROCCA Benjamin 01:22:52 SEM US ROISSY EN BRIE M 1835
45 TOUBALE Kassem 01:22:58 SEM - M 1482
46 DE STAEL Antoine 01:23:00 ESM - M 1159
47 CARO Didier 01:23:02 V1M REV7 M 1477
48 DE BO Frederic 01:23:05 V1M DOMONT ATHLETISME M 1580
49 PAVEAU Raynald 01:23:06 V1M - M 1387
50 PERE Fabrice 01:23:06 V1M FSCF M 1420
51 GOBIN David 01:23:07 SEM - M 1226
52 CRUCHANT Pascal 01:23:10 V1M - M 915
53 SLIMANI Abdelah 01:23:11 V1M RAJASPORT M 1606
54 BOHEC Christian 01:23:13 V2M AJTVDF M 1er V2M 1025
55 DUGOUR Philippe 01:23:18 V2M ATHLETISME M 2eme V2M 381
56 MONTEL Sylvain 01:23:23 SEM CC TAVERNY ATHLETISM M 1856
57 GUERIN Gilles 01:23:24 V1M CSM GENNEVILLIERS M 1794
58 SAQUET Frederick 01:23:29 SEM S/L ASIC ORRY LA VIL M 1520
59 AGOSTINI Frederic 01:23:30 V1M - M 1713
60 BOUCARD Bruno 01:23:31 V1M - M 1524
61 OLLAGNIER Olivier 01:23:32 SEM KIKOUROU M 1225
62 MOLINA Francisco 01:23:36 V1M DOMONT ATHLETISME M 1574
63 COLETA Thierry 01:23:39 SEM - M 1957
64 VOIRIN Laurent 01:23:43 V1M - M 1251
65 RAVASSON Christophe 01:23:53 SEM VAL D'ORGE ATHLETIC M 1838
66 GUEDON Philippe 01:23:58 V1M - M 1538
67 HECK Christophe 01:23:59 V1M USMBM M 1082
68 THERAUD Pascal 01:24:03 V2M - M 3eme V2M 1523
69 LECOU Gerard 01:24:06 V3M - M 1er V3M 1542
70 SERVIAN Christophe 01:24:10 V1M - M 890
71 DELVAL Alain 01:24:12 SEM USO CHELLES M 1672
72 FLEYTONS Pierre 01:24:22 SEM - M 1571
73 FLESCH J Paul 01:24:24 V1M - M 1929
74 ROGEREAU Xavier 01:24:26 SEM CAEN TRIATHLON M 1174
75 GUILLEMOT Bertrand 01:24:26 V1M - M 1231
76 AUGENDRE Marc 01:24:29 V1M - M 1639
77 ROUSSEAU Philippe 01:24:30 V1M DOMONT ATHLETISME M 1315
78 VEYRES Vincent 01:24:31 SEM - M 1345
79 AUGUE Georges 01:24:36 V1M LES FURIEUX DU BITUM M 1256
80 HAMON Marie Line 01:24:36 SEF C.C. TAVERNY F 3eme F 1163
81 FUCHS Guillaume 01:24:41 SEM - M 1104
82 DUPOIRIEUX Francis 01:24:44 V2M - M 1515
83 WIECHERS Nicholas 01:24:47 V1M - M 905
84 Dossard #1002 01:24:52 SEM - M 1002
85 CORBIERE Eric 01:24:56 V1M S/L AC ST GRATIEN SA M 1640
86 SOULIER David 01:24:58 SEM - M 1755
87 BOST Didier 01:25:14 V1M - M 1066
88 BLANCHET Christophe 01:25:20 SEM - M 1530
89 SCHLEDERER Stephane 01:25:20 V1M - M 1829
90 FOREST Frederic 01:25:20 SEM - M 1014
91 BAUCHY Damien 01:25:26 SEM RAIDLIGHT M 1502
92 PERETTI Dominique 01:25:28 V2M - M 1070
93 DE STAEL Clement 01:25:33 JUM - M 1158
94 MONCADA Stephane 01:25:41 SEM - M 1774
95 LAURETTE Fabien 01:25:43 SEM - M 153
96 KADDOUR Youssef 01:25:44 V1M - M 1416
97 PETIT Frederic 01:25:50 V1M LES FURIEUX DU BITUM M 1262
98 MICHEL Alexis 01:25:53 V2M RUNNINGEVASION 95 M 1291
99 SIMON Patrice 01:25:54 V2M ASL VARREDES M 1353
100 LESAVRE Loic 01:25:55 SEM ES SUCY EN BRIE M 1348
101 ANSQUER Herve 01:26:04 SEM BEAUMONT TRIATHLON M 1566
102 LACOUR Norbert 01:26:12 V2M - M 1621
103 COMBE Benjamin 01:26:19 JUM USOBEZONS TRIATHLON M 1170
104 LECESNE Patrick 01:26:22 V1M RUNNINGEVASION 95 M 1292
105 GICQUEL Laurent 01:26:34 SEM FUN EVENTS M 1083
106 LAGUET Benoit 01:26:35 SEM VALLeE DE MONTMORENC M 1766
107 COUBLE Andre 01:26:42 V1M - M 1637
108 DELOT Daniel 01:26:43 V2M - M 914
109 GALLOT Thomas 01:26:47 SEM ASC TOURNAN M 1364
110 DEWULDER Francois 01:26:53 SEM - M 886
111 MARQUES Albert 01:27:01 V1M LES FURIEUX DU BITUM M 1259
112 BAUX Tristan 01:27:02 V1M - M 1987
113 FRANCES Olivier 01:27:02 V1M DOMONT ATHLETISME M 1577
114 BALESTIER Thilo 01:27:03 ESM - M 1305
115 CSATHO David 01:27:08 SEM - M 327
116 LE CORNEC Amandine 01:27:10 SEF DOMONT ATHLETISME F 1588
117 PERICHON Eric 01:27:18 V1M - M 1632
118 BIHR Laurent 01:27:19 V1M RAJASPORT M 1602
119 BEURNAUX Guillaume 01:27:22 SEM - M 1976
120 SIMMONET J Yves 01:27:24 V2M RUNNINGEVASION 95 M 1289
121 GENESTE Etienne 01:27:31 SEM - M 896
122 SIDANER Xavier 01:27:32 SEM - M 1777
123 BENEVENT Patrick 01:27:37 V1M - M 1188
124 DE STAEL Arnaud 01:27:41 V1M - M 1160
125 PEDUSSEL Pascal 01:28:00 V1M - M 1678
126 APRONIA Thierry 01:28:01 V1M RAJASPORT M 1604
127 ALVES FERNANDES Laurent 0,061134259 SEM US METRO TRIATHLON M 1427
128 FRAISINEDE Yannick 0,061134259 V1M ISLE ADAM ATHLETIC C M 1013
129 CHAILLOU Ludovic 0,061145833 SEM U NE 95 ATHLETISME M 1319
130 CARLIER Philippe 01:28:03 SEM - M 1636
131 GUFFROY Frederic 01:28:04 V1M - M 1213
132 LHOTTELLIER Nicolas 01:28:05 SEM - M 1743
133 MATTE Xavier 01:28:07 V1M - M 1112
134 BERRET Bruno 01:28:08 V1M LJC M 1980
135 CHAVAL Aurelien 01:28:09 SEM - F 1960
136 BREBION Thierry 01:28:09 SEM SPORTING CLUB ATHLET M 1970
137 GALLERON Francis 01:28:20 V1M - M 1168
138 HAMEL Jean Luc 01:28:29 V1M SCAB 55 M 1195
139 GARCIA FAUVARQUE Raphael 0,061458333 JUM - M 1529
140 DEFOSSEZ Francois 0,06150463 V2M - M 1638
141 PEREIRA Julien 01:28:41 SEM - M 1845
142 MIROUZE Francois 01:28:41 SEM - M 1862
143 MICHON Christophe 01:28:45 V2M - M 1121
144 HEBERT Julien 01:28:48 SEM - M 1352
145 ANGELILLO Philippe 01:28:52 V1M ESAM M 1343
146 GUILLERIN Philippe 01:29:00 SEM - M 887
147 DEBON Franck 01:29:04 V1M - M 1950
148 BERRUTI Lorenzo 01:29:12 V1M - M 1979
149 CHAPELLE Thomas 01:29:13 SEM - M 1118
150 LE HUANT Laurent 01:29:18 SEM - M 1724
151 TOUPET Ludovic 01:29:25 SEM - M 1043
152 RANKIN Benjamin 01:29:26 SEM - M 246
153 LAURENT Philippe 01:29:30 V1M FOULeES DE SAINT GER M 1236
154 BERARD Philippe 01:29:38 SEM ES RENAULT M 1287
155 PERICAUD Ludovic 01:29:40 SEM AS NANDY ATHLETISME M 1461
156 CHAVANNE Eric 01:29:44 V1M RUNNINGEVASION 95 M 1297
157 VELLEINE Jerome 01:29:47 SEM - M 1631
158 HOUILLON Bruno 01:29:52 V1M U.A.SG M 352
159 DUJARDIN Dominique 01:29:57 SEM FOULEES DE ST GERMAI M 1615
160 DERVAUX Etienne 01:30:00 SEM - M 325
161 ETCHEMENDY Christophe 01:30:01 V1M MAIRIE DE SOISY M 1518
162 VERVIN Thierry 01:30:04 V1M - M 1015
163 BERGER Daniel 01:30:04 V2M SCBA M 1299
164 COZIC Ludovic 01:30:05 SEM - M 1802
165 CALMEJANE Bruno 01:30:07 SEM CC THELLE M 1623
166 MESSINA Franck 01:30:07 V1M ES THIERS M 1868
167 MESSINA Vincent 01:30:09 SEM CC THELLE M 1487
168 DELAMARRE Christian 01:30:10 V1M - M 1625
169 CAQUOT Chrsitian 01:30:11 V1M INFOTEC M 1302
170 HERROUIN Eric 01:30:15 V1M UA MAISONS LAFFITTE M 1200
171 BEDIN Fabrice 01:30:31 SEM - M 1101
172 LEANDRI Christophe 01:30:34 SEM RUNNINGEVASION 95 M 1293
173 LEBRIS Christian 01:30:40 SEM - M 1892
174 LUCAN Patrice 01:30:43 SEM - M 1091
175 COSTES William 01:30:44 SEM - M 1715
176 BEAUVERGER Patricia 01:30:44 V1F VAL D'ORGE ATHLETIC F 1394
177 MARBOEUF Laurent 01:30:45 V1M LES PIEDS NICKELeS M 1185
178 MENY Ivan 01:30:49 SEM - M 1665
179 PERES Thierry 01:30:53 V1M - M 1341
180 LAGONIE Sebastien 01:30:56 SEM COURIR A LIEUSAINT M 1381
181 JAMRISKA Didier 01:31:00 V1M - M 1668
182 BIRON Gael 01:31:06 SEM - M 927
183 PUCHEU Patrick 01:31:12 SEM - M 1839
184 DELPECH Arnaud 01:31:12 SEM - M 1109
185 SPIGARELLI Bruno 01:31:12 V1M - M 1131
186 CUVILLIER Christophe 01:31:15 SEM - M 1095
187 LEZORAY J Jacques 01:31:17 V3M CC THELLE M 2eme V3M 1568
188 LE COZ Pascal 01:31:17 V1M - M 1758
189 PAONE Vincent 01:31:24 V2M - M 904
190 ALBET Jerome 01:31:27 SEM - M 1471
191 WALET Christophe 01:31:28 SEM - M 1816
192 LUQUE JF 01:31:30 V1M - M 1884
193 PIGANIOL Stephane 01:31:35 SEM SAPEUR POMPIER M 1590
194 MOURIC J Yves 01:31:39 V1M U NE 95 ATHLETISME M 1439
195 GIBON Didier 01:31:42 V1M - M 1633
196 VINDARD Denis 01:31:46 V1M RUEIL AC M 1127
197 ZUCCHIATTI Fabrice 01:31:54 SEM MAIRIE DE SOISY M 1517
198 THILLY J Marie 01:31:59 V2M - M 1793
199 GARRIDO Yann 01:32:01 SEM BEAUMONT TRIATHLON M 1417
200 SPINA Julien 01:32:04 SEM - M 1771
201 PAYS Sylvain 01:32:09 SEM - M 1735
202 BIGAND BUGANDET Julien 0,064050926 SEM - M 1094
203 LePINE Frederic 0,06412037 V1M - M 1889
204 RECLUS Pascal 0,064166667 V1M AUVERS ATHLETISME M 1708
205 AUBRON Franck 01:32:27 V1M - M 1521
206 CADERHOUSSIN Anthony 01:32:29 V1M ATLHETISME FRANCONVI M 1726
207 BOUGRAINVILLE Bruno 01:32:32 SEM - M 1122
208 SPEURT Philippe 01:32:41 V1M - M 1110
209 LAZZARINI Eddie 01:32:44 SEM - M 1897
210 LE LAY Thierry 01:32:48 V1M - M 1392
211 JOUBERT Frederic 01:32:50 V1M COURIR A LIEUSAINT M 1382
212 GALLIER Fred 01:32:53 V1M COURS TOUJOURS M 1359
213 SVAGR Katerina 01:32:57 V2F - F 1516
214 CAVALIER Alain 01:33:00 V1M ASDIF M 1698
215 RISON Thomas 01:33:02 SEM - M 1493
216 MATHIEU Gerald 01:33:04 V1M - M 1872
217 PEYRUSE Christelle 01:33:09 SEF - F 1751
218 RAOUL Gerard 01:33:14 V3M A.S.NANDY M 3eme V3M 1140
219 BRENGUIER Pascal 01:33:16 V1M - M 1248
220 TERRONI Gilbert 01:33:18 V2M ATHLE-COMPETITION M 1221
221 LECAT Raphael 01:33:20 SEM - M 1469
222 BILGER Philippe 01:33:28 V2M - M 1310
223 BLANC Serge 01:33:28 V1M U NE 95 ATHLETISME M 1060
224 PASTOORS Alain 01:33:34 V1M CC THELLE M 1391
225 GUILBAUD Hubert 01:33:36 SEM - M 1009
226 RALITE Michel 01:33:38 V1M - M 1010
227 FUNARO Pierre 01:33:38 V1M - M 1008
228 POUX Vincent 01:33:40 SEM - M 1675
229 SUARD Jacques 01:33:40 V2M AC BEAUCHAMP M 1408
230 GARRIGUE Thierry 01:33:57 V1M - M 1748
231 LEOGNANY Sebastien 01:33:58 SEM - M 1241
232 FERRERO Marc 01:33:59 V2M - M 1489
233 BETTAN Philippe 01:34:01 V1M - M 1701
234 SCHINKLER Lilian 01:34:03 SEM CC THELLE M 1624
235 KWIATKOWSKI Olivier 01:34:10 SEM - M 1901
236 GOZALO Nicolas 01:34:15 V1M - M 1492
237 TOMA Albert 01:34:15 V2M - M 912
238 KOPACZ Luc 01:34:17 SEM - M 1092
239 MOREL Arnaud 01:34:24 V1M MONTATAIRE AC M 1485
240 NICOLLE Michel 01:34:26 V1M - M 906
241 GUILLAUME Franck 01:34:32 V1M - M 1645
242 ARROUCH Olivier 01:34:33 SEM - M 17
243 PLACER Vincent 01:34:37 SEM - M 1537
244 JOYEROT Gerald 01:34:43 SEM - M 1904
245 DESVIGNES Sebastien 01:34:44 SEM - M 1142
246 SIMON Arnaud 01:34:49 SEM - M 1760
247 LOPEZ Rene 01:34:50 V2M THOMSON GRASS VALLEY M 1273
248 LEVASSEUR Thierry 01:34:54 V1M ASBAZAINVILLE M 1179
249 FRANIATTE Dominique 01:34:58 V1M - M 1746
250 CARDINAL Herve 01:35:02 SEM - M 1993
251 AUBIN Matthieu 01:35:02 SEM U.A.SG M 1788
252 BREARD Nicolas 01:35:04 SEM LIBAIR'TRAIL M 1656
253 AMADOR Pascal 01:35:05 V1M CC THELLE M 1414
254 ABAKI Mohamed 01:35:06 SEM USEE M 1284
255 BOURAYA Slimane 01:35:26 V1M - M 1230
256 VAUZELLE Clemence 01:35:30 ESF - F 924
257 DELSAUX Michel 01:35:31 V1M MACADAM 77 M 885
258 BESSON Frederic 01:35:34 SEM - M 1683
259 JOSSO Didier 01:35:38 V1M A S AIR FRANCE M 1068
260 PERRIN Boris 01:35:40 SEM SCHNEIDER ELECTRIC M 1545
261 HELLIO Laurent 01:35:44 V1M AJC M 1313
262 COLLET Franck 01:35:47 SEM CC THELLE M 1390
263 PROVO Patrick 01:35:53 V1M - M 1840
264 PINVILLE Tony 01:35:54 SEM - M 1491
265 FRADET David 01:35:55 SEM - M 1926
266 ROBIN Pierre 01:35:56 V2M - M 889
267 BEAUFILS Raynald 01:35:56 V2M FSGT M 1340
268 ROLLAND Stephane 01:35:57 SEM - M 1833
269 BALESTIER Anita 01:35:57 SEF - F 1308
270 COATANTIEC Thierry 01:35:57 V2M AS BANQUE DE FRANCE M 1177
271 CHIRON Celia 01:35:57 ESF TUCTRI F 1307
272 ANNE Sebastian 01:36:00 SEM - M 1990
273 PENVEN Charles 01:36:06 V1M - M 1809
274 CHABIN julien 01:36:07 SEM - M 1102
275 HATTON Ghislain 01:36:13 V1M - M 1552
276 BOUVIER Jean Claude 01:36:14 V3M DOMONT ATHLETISME M 1581
277 GRENARD Sylvain 01:36:15 SEM - M 1064
278 CHESSEBOEUF J Francois 01:36:16 V2M - M 1541
279 DELAUNE Loic 01:36:21 V1M RUNNINGEVASION 95 M 1296
280 PIAGET Sebastien 01:36:23 SEM - M 846
281 VETU Romain 01:36:35 SEM - M 1037
282 LUSTGARDEN frederic 01:36:41 V1M - M 1883
283 NOVOA Eric 01:36:42 V1M - M 1413
284 RAOULT Patrick 01:36:42 SEM BSGA M 1124
285 VALDENAIRE Bernard 01:36:46 V2M TRIATH'CLUB ANDRESY M 1198
286 DURY Cyrille 01:36:48 V1M - M 1351
287 DELARBRE Christian 01:36:50 SEM DOMONT ATHLETISME M 1579
288 FRAYE Marc 01:36:52 V2M - M 1192
289 FAVRETTO Yannick 01:37:00 V1M COURS TOUJOURS M 1358
290 MORLET Franck 01:37:02 V1M - M 1076
291 ROBERT Renata 01:37:04 V1F LES FURIEUX DU BITUM F 1263
292 PESTRIMAUX Jean Marc 01:37:07 V1M - M 1234
293 LE MANACH Alain 01:37:08 V1M - M 1595
294 MULLER Frederic 01:37:08 V1M - M 1311
295 BOUTEILLER Eddy 01:37:15 V1M - M 1243
296 BARROCHE J Michel 01:37:18 V1M - M 1988
297 MANGOU Bertrand 01:37:20 V1M - M 926
298 GROSBOIS Nicolas 01:37:22 V1M SNECMA SPORT GENNEVI M 1269
299 LAURENT Catherine 01:37:23 V1F FOULeES DE SAINT GER F 1235
300 AGNIEL Jean Marie 01:37:32 V1M - M 1166
301 DROUET Vincent 01:37:42 V1M - M 1526
302 LEFEBVRE Simon 01:37:46 SEM - M 1035
303 COMTE Pascal 01:37:47 V1M CMCAS 94 M 1369
304 EPERT Jean Luc 01:37:52 V1M - M 1216
305 ROOSEN Christophe 01:37:59 V1M BEAUMONT TRIATHLON M 1039
306 GOUFFAUD Christian 01:38:14 V1M - M 932
307 DEPLAIX Philippe 01:38:16 V1M - M 1187
308 LETERME P yves 01:38:16 V1M - M 1020
309 MONTIGNY Steve 01:38:24 V1M - M 1855
310 DECKER Claude 01:38:24 SEM - M 1078
311 BLANCHARD Pascal 01:38:24 V1M - M 326
312 YAKAN Jacques 01:38:47 SEM - M 1254
313 RICHARD Pierre 01:38:50 SEM U.A.SG M 1785
314 HAFFAF Samy 01:38:54 V2M - M 1157
315 CLUZET Didier 01:38:57 V1M CAP SUD M 1616
316 MAXCH Franck 01:38:58 V1M - M 1871
317 MERRIEN Noel 01:38:58 V2M - M 1778
318 BUSUTTIL Nicolas 01:39:00 SEM - M 1806
319 SAFFROY Patrick 01:39:00 V2M - M 1759
320 VANNIER Patrice 01:39:10 V2M - M 297
321 PIQUET Brigitte 01:39:10 V1F DOMONT ATHLETISME F 1585
322 BARLE Bruno 01:39:22 V1M AS DRANCY JOGGING M 1034
323 MANGIN Pascal 01:39:24 SEM - M 1418
324 MANGIN Eric 01:39:24 SEM - M 1555
325 MILLOT Damien 01:39:26 SEM POMPIERS BEAUMONT SU M 1685
326 CHAMEROIS Tariel 01:39:29 V1M - M 1041
327 JACOBACCI Christian 01:39:30 V3M CC THELLE M 1383
328 GIGON Marc 01:39:31 V1M - M 1205
329 THEBAUT Alain 01:39:35 V2M US GAZELEC M 1559
330 CHASSAGNARD Marc 01:39:35 V2M US GAZELEC M 1563
331 BOUTITIE Mathieu 01:39:36 SEM CAP SUD M 1141
332 ROVA Guillaume 01:39:37 SEM - M 929
333 ESPIE Eric 01:39:37 V1M - M 1699
334 BINOVSKI Christophe 01:39:39 SEM - M 318
335 SANTA MARIA Emmanuel 01:39:39 V1M LES PIEDS NICKELeS M 1186
336 GOT Raynald 01:39:41 V1M - M 1664
337 BRAGOVSKI Nicky 01:39:47 V1F USEE F 1281
338 GOSSET Sylvain 01:39:48 SEM USEE M 1279
339 LAFOURCADE Alexandre 01:40:00 SEM - M 1899
340 LE CORNEC Sylvain 01:40:00 SEM - M 1896
341 MINEAU FREDERIC 01:40:00 SEM - M 1863
342 HAMAD Zoubir 01:40:00 V1M - M 913
343 POILVERT Patrick 01:40:02 SEM ES RENAULT M 1285
344 JOUY Franck 01:40:07 V2M - M 1905
345 LARZUL Philippe 01:40:07 V1M U NE 95 ATHLETISME M 1446
346 BELGUENE Lahoucine 01:40:08 V1M - M 1984
347 MAILLARD Jean Michel 01:40:09 SEM RASTATHLETIC M 1775
348 BOES Sylvain 01:40:11 V1M - M 1099
349 VANDEPUY Nicolas 01:40:25 SEM ALCATEL-LUCENT M 1323
350 BEVALOT Francois 01:40:27 V1M - M 1975
351 REVEL Laurent 01:40:28 V1M - M 1494
352 VANNIER Arnaud 01:40:30 SEM - M 1270
353 QUILLARD Michel 01:40:32 V2M VAL D'ORGE ATHLETIC M 1395
354 NICOLAS Philippe 01:40:34 V1M - M 1040
355 BIANCHI MIRASOLE Guillaume 0,069849537 SEM CE HSBC M 1316
356 BOUTEILLER Pierre 0,069861111 V2M AS NANDY ATHLETISME M 1466
357 SERRA Carlos 0,069884259 V1M - M 1072
358 CHAMAYOU Joel 0,069918981 V1M - M 1720
359 PIOGER Catherine 01:40:50 SEF - F 1642
360 PATRIS Raphael 01:40:51 SEM - M 1202
361 RATTIER Christelle 01:40:54 V1F U NE 95 ATHLETISME F 1435
362 BAILLY Daniel 01:40:58 V1M - M 1393
363 COMTE Jeremy 01:41:01 CAM CMCAS 94 M 1368
364 LE MEHAUTE Gildas 01:41:01 SEM - M 1132
365 ARMAND Maxime 01:41:03 SEM - M 1106
366 MIGNON Francois 01:41:04 V1M FOULEES DE ST GERMAI M 1533
367 CAYLAT Lionel 01:41:05 V1M - M 1204
368 PELLERIN Didier 01:41:07 V1M - M 931
369 LOUCHE Bernard 01:41:07 V1M FLEP CARRIeRES-SOUS- M 1135
370 BONIS Yohan 01:41:08 SEM - M 1972
371 MIGUEL Manuel 01:41:12 V1M - M 1865
372 MARIN Jeanmichel 01:41:13 V2M - M 928
373 L'HOMMELET Mickael 01:41:18 SEM VMT M 1888
374 DELAMORT Alexandre 01:41:18 SEM - M 1136
375 GIRAUD J Marc 01:41:26 V2M AC BEAUCHAMP M 1407
376 GUILLOT David 01:41:36 SEM - M 1527
377 TOMCZAK Nathalie 01:41:38 V1F - F 1349
378 CORNET Arnaud 01:41:38 V1M - M 1484
379 RECLUS Sylvie 01:41:39 V1F AUVERS ATHLETISME F 1709
380 MERAOUNA Toufik 01:41:43 V1M TRIATH CLUB D'ANDRES M 1161
381 JURION Dominqiue 01:41:45 V2M AC BEAUCHAMP M 1406
382 MOURGUES Alexandre 01:41:45 ESM - M 1271
383 LAGACHE Bertrand 01:41:46 V1M - M 1513
384 HEIM Laurent 01:42:03 SEM - M 1696
385 MANSY Frank 01:42:03 SEM ACCRORUN M 1875
386 COMBE Francois 01:42:03 V1M USOBEZONS TRIATHLON M 1171
387 O'NEIL Herve 01:42:07 V1M AJTVDF M 1026
388 CARON Jacques 01:42:09 V2M JOGGING CLUB BRUYERE M 1402
389 EPINAY Frederic 01:42:10 V1M - M 1934
390 SALVADORI David 01:42:14 SEM - M 1651
391 PETITJEAN Eric 01:42:15 V1M - M 1994
392 LEAV Kimly 01:42:15 SEM - M 1996
393 LE BOURGEOIS Stephanie 01:42:20 SEF - F 1107
394 PANGRANI Yann 01:42:40 SEM PACOTILLE.EU M 1847
395 RELLO Philippe 01:42:41 V1M - M 1752
396 DELATTRE Christophe 01:42:42 SEM - M 1003
397 GUIZELIN Benjamin 01:42:45 SEM - M 1111
398 HERPE Pascal 01:42:52 V1M - M 1913
399 WIECHERS Anne 01:42:54 V1F FOULEES DE SAINT GER F 1046
400 SOAVI Didier 01:43:00 V1M - M 1042
401 LECLERCQ Philippe 01:43:02 V3M US GAZELEC M 533
402 MARILLAUD Jacky 01:43:03 V2M US MERY M 1570
403 BOUZAC Aurelien 01:43:07 SEM - F 1210
404 FRULEUX Patrick 01:43:08 V2M - M 1792
405 JORY Denis 01:43:09 V1M SC DRAVEIL M 1617
406 PAIX Bernard 01:43:13 V1M FOULeES DE SAINT GER M 1749
407 PERRIER Alain 01:43:13 V2M AC BEAUCHAMP M 1403
408 GAUTHIER Jerome 01:43:14 V1M FOULEES DE ST-GERMAI M 1767
409 BERTRAND Francis 01:43:14 V2M - M 880
410 MARTIN Clement 01:43:14 CAM - M 1303
411 MIQUEL Bastien 01:43:19 ESM ES SUCY EN BRIE M 1126
412 LE LEUCH Aude 01:43:22 SEF - F 1240
413 BREARD Karine 01:43:24 SEF LIBAIR'TRAIL F 1657
414 LAFOLIE Laurent 01:43:24 V1M LIB AIR TRAIL M 1531
415 GUEGAN Yves 01:43:29 SEM THALES M 685
416 CLERY Muriel 01:43:34 V1F - F 900
417 LAUFENBURGER Benoit 01:43:36 SEM - M 1036
418 GOULVESTRE Arnaud 01:43:36 SEM - M 1504
419 LEVEIL Didier 01:43:37 V2M DOMONT ATHLETISME M 1576
420 DUMESNIL Anatole 01:43:39 SEM - M 1769
421 GRENON Franz 01:43:41 SEM - M 1203
422 CHAMPION Gerald 01:43:43 V1M - M 1063
423 CHARPENTIER helene 01:43:44 SEF - F 1514
424 DEUIL Jerome 01:43:46 V1M ES THIERS M 1944
425 DAUBIAN Philippe 01:43:47 V1M - M 875
426 SANTAIS Frederic 01:43:48 V1M - M 1650
427 RINGEVALLE Matthieu 01:43:49 SEM - M 1836
428 LE BORGNE Paula 01:43:50 V2F REV7 F 1378
429 VOJTEK Vladimir 01:43:51 V1M REV7 M 1377
430 CRIGNON Fabrice 01:43:52 SEM - M 1954
431 POSTEL Gregory 01:43:53 SEM U.A.SG M 1784
432 DORE Alain 01:43:53 V2M - M 1528
433 LE GOUX Sandrine 01:43:54 SEF - F 1895
434 ESSEX John 01:43:57 V2M FOULEES DE SAINT GER M 1593
435 MAKALA Sylvestre 01:43:59 SEM - M 1879
436 SCHWAEDERLE Pascale 01:44:01 V1F U NE 95 ATHLETISME F 1432
437 COLINET Ludovic 01:44:04 SEM - M 1049
438 DENIS Bernard 01:44:08 V2M SAGEM M 1801
439 RUDENT Sophie 01:44:09 V1F - F 1495
440 DE VILLE D'AVRAY Arnault 01:44:13 SEM - M 1951
441 MAHIEU Cedric 01:44:14 SEM - M 1658
442 KERNEIS Christophe 01:44:14 SEM - M 1054
443 BELLIDO Richard 01:44:15 SEM ETOILE SPORTS M 1983
444 TARIN Stephanie 01:44:15 SEF ETOILE SPORTS F 1824
445 BONNIOL Eric 01:44:19 V1M - M 1497
446 WESTARP Christian 01:44:22 SEM - M 1692
447 DEWEZ Olivier 01:44:22 SEM - M 1693
448 BOURAYA Farid 01:44:25 V1M - M 1229
449 LEMERCIER Eric 01:44:26 SEM FUN EVENTS M 1085
450 WANIN Arnaud 01:44:28 SEM FUN EVENTS M 1086
451 VANNIER Bruno 01:44:28 V2M FSCF M 1419
452 GABORIAU Julien 01:44:31 SEM - M 1924
453 CROISY Bruno 01:44:31 V1M CMCAS 94 M 1370
454 DREANO J Francois 01:44:33 SEM - M 1556
455 PELLERIN Didier 01:44:42 V1M SNECMA SPORT GENNEVI M 1267
456 LEITAO Paul 01:44:47 SEM - M 1219
457 TAPIAU J Philippe 01:44:52 V1M DOMONT ATHLETISME M 1573
458 CHAMPION Ludovic 01:45:07 SEM - M 1031
459 PARRAULT Philippe 01:45:11 V1M - M 1055
460 MONTEIL Gregoire 01:45:11 SEM - M 730
461 RAMEAUX Thibault 01:45:12 SEM - M 1133
462 ALFONSETTI Claude 01:45:12 SEM - M 1773
463 DESCOUENS Francois 01:45:14 SEM - M 1154
464 CURET Etienne 01:45:15 SEM VERNOUILLET ATHLE M 1953
465 PAGNARD Franck 01:45:16 V1M - M 1849
466 PINeDE Laurent 01:45:17 V1M - M 1499
467 GUMEZ Christophe 01:45:19 SEM - M 1572
468 BRULEY Boris 01:45:23 SEM - M 1717
469 LE PUIL JACKY 01:45:27 V1M - M 1894
470 PARIS Valerie Anne 01:45:28 V1F FSCF F 1425
471 BLENNY Nicolas 01:45:29 SEM - M 1103
472 BARAT Eric 01:45:33 V1M DOMONT ATHLETISME M 1583
473 PETIPAS Emilie 01:45:33 SEF - F 1088
474 DUPERRET Christian 01:45:33 V2M DOMONT ATHLETISME M 1578
475 PISSARD Peggy 01:45:36 SEF CS TERNES PARIS OUES F 1620
476 CABLANT Samuel 01:45:37 SEM - M 1810
477 COLLIN Patrice 01:45:38 SEM - M 1807
478 BAUDOIN Aurelien 01:45:38 SEM - F 1089
479 ROCHER Thibault 01:45:38 JUM - M 1096
480 RICHEFOU Gerard 01:45:50 V3M ATHLETIC BRUNOY CLUB M 1733
481 FERREIRA Michel 01:45:52 SEM - M 1804
482 REMBAUD Aurelien 01:46:00 SEM - F 1718
483 MARCEL Maryline 01:46:00 V2F - F 1224
484 TASSAN GURLE Thierry 01:46:06 V2M - M 1327
485 ROUXEL Odile 01:46:08 V1F - F 877
486 PAGOT Ludovic 01:46:12 SEM - M 1848
487 BROCHARD Laurent 01:46:16 V1M - M 1968
488 MILLERY Edwige 01:46:18 SEF - F 1864
489 SEIBEL Michel 01:46:19 V2M - M 1828
490 HONORE Veronique 01:46:25 V2F - F 1909
491 VENDE Yannik 01:46:25 V2M - M 1547
492 CHESSEBOEUF Claudie 01:46:35 V1F - F 1540
493 SOUILLART Alexandre 01:46:35 ESM - M 1627
494 LY Jean Michel 01:46:37 V1M - M 1737
495 DESBORDES Vincent 01:46:40 SEM - M 1460
496 BEGARDS Elodie 01:46:43 SEF PACOTILLE.EU F 1985
497 FREMIAUX Daniel 01:46:43 V2M MACADAM 77 M 1660
498 EBNER Pascale 01:46:52 V2F FSGL F 1169
499 JEUNESSE Alain 01:47:00 V1M - M 1415
500 MADALENA Herve 01:47:03 SEM - M 1180
501 AUGER Frederic 01:47:04 SEM - M 1217
502 LATREUILLE Eric 01:47:04 V1M U NE 95 ATHLETISME M 1444
503 CHAULET Sebastien 01:47:06 SEM POMPIERS BEAUMONT SU M 1686
504 JEANDRON Bernard 01:47:08 V3M FSCF M 1422
505 DUC Sebastien 01:47:08 SEM - M 1764
506 BOURY Karine 01:47:10 V1F - F 882
507 PEYRUSE Christelle 01:47:11 SEF - F 1751
508 MAHOT Yannick 01:47:13 V2M - M 1880
509 WEISSENBACHER Christophe 01:47:19 V1M - M 1134
510 JESTIN Guenaelle 01:47:21 V1F - F 1017
511 LE TEXIER Rahma 01:47:22 V1F DOMONT ATHLETISME F 1587
512 POULLIN Franck 01:47:22 V1M - M 1843
513 HOREL Jean Pierre 01:47:22 V2M - M 1610
514 THOURY Julie 01:47:24 SEF - F 1148
515 BELARBI Mourad 01:47:29 V1M - M 1740
516 BERNARD Stephane 01:47:33 SEM - M 1754
517 ABGRALL Olivier 01:47:34 SEM PP Paris M 11
518 DELABROYE Vincent 01:47:36 SEM - M 1630
519 MARGUET Isabelle 01:47:36 V1F - F 1191
520 AUBRY Bastien 01:47:39 SEM - M 1388
521 CHEVALIER Marc 01:47:43 V1M BSGA M 1959
522 LEVILLAIN Jennifer 01:47:43 SEF - F 1201
523 GIREME Christiane 01:47:44 V2F - F 1997
524 ATTA Christine 01:47:46 SEF - F 1138
525 LECOURBARON Ludovic 01:47:54 SEM EC SARTROUVILLE TRIA M 1891
526 PROVOST Philippe 01:47:55 V1M ASDIF M 1731
527 SIMON Philippe 01:47:56 V3M ESAM M 1016
528 LOSAPPIO Laurence 01:48:00 V1F PLM CONFLANS F 1710
529 CZERNICHOW Nicolas 01:48:13 SEM - M 1592
530 MINNI Baptiste 01:48:15 SEM - M 1047
531 ARHAN Jean Yves 01:48:17 V3M - M 414
532 PASSA Eric 01:48:31 V1M 3M M 1108
533 BRAIL Frederic 01:48:35 SEM - M 756
534 LEGRAIN Thomas 01:48:35 SEM - M 1027
535 PARENT Emmanuel 01:48:35 SEM SAPEUR POMPIER M 1591
536 CHARLET Tony 01:48:40 SEM - M 930
537 GAUFRETEAU Carole 01:48:40 SEF - F 1920
538 FALAISE Dominique 01:48:44 V2F USCPCA F 1762
539 BOURY Yvan 01:48:44 V1M - M 1149
540 JALTA Michel 01:48:46 V1M - M 1246
541 FERRERO Emmanuelle 01:48:47 SEF - F 1490
542 SENGELEN Marc 01:48:48 V1M - M 1021
543 CROISY Manuela 01:48:54 V1F CMCAS 94 F 1371
544 JOHANNIN Thierry 01:48:55 V1M US GAZELEC M 1562
545 CHERGUI Sabah 01:48:56 V1F - F 1611
546 DUGAS Pierre 01:48:56 V3M - M 1607
547 DANIEL Alexandra 01:48:59 SEF - F 1952
548 ISAY Sabine 01:48:59 SEF - F 1798
549 LEGER Willy 01:48:59 SEM - M 1641
550 COURTEL Ollivier 01:49:01 V1M - M 1242
551 RUTLEDGE Michele 01:49:02 V1F CIVC F 1389
552 ANDRE Valentin 01:49:03 ESM - M 1557
553 BESSON Elodie 01:49:06 SEF ACCRORUN VILLEPREUX F 1697
554 HARSTRICH Fred 01:49:06 V1M - M 1080
555 MANSY Veronique 01:49:07 SEF ACCRORUN F 1876
556 ASSIER J Michel 01:49:09 SEM MARNE ET GONDISE ATH M 1385
557 PROST Nicolas 01:49:09 SEM - M 1508
558 PANTALEAO Octavio 01:49:11 V2M - M 1553
559 DE VILLENEUVE J Luc 01:49:11 V1M - M 1756
560 CAISLEY Guillaume 01:49:12 V1M - M 1966
561 LACHAUX Jacky 01:49:12 V2M A.S AIR FRANCE M 1018
562 POULLIN Wilfried 01:49:13 SEM - M 1842
563 BALESTIER Guy 01:49:15 V2M - M 1306
564 ROCHERY Herve 01:49:22 V2M - M 1208
565 GROTARD Didier 01:49:25 V1M - M 1098
566 BESSON Celine 01:49:29 SEF BEAUMONT TRIATHLON F 466
567 BOHIC Laetitia 01:49:31 SEF - F 1597
568 PICARD Thierry 01:49:38 V1M U NE 95 ATHLETISME M 1436
569 LE BROZEC David 01:49:45 SEM - M 1150
570 MOFFATT Ian 01:49:46 V1M - M 1860
571 BERTON Xavier 01:49:49 V1M - M 1023
572 BORDIN Eric 01:49:49 V1M - M 1971
573 RAULT Thierry 01:49:50 V1M PLESSALA M 1666
574 SANITAS Jacky 01:49:51 V2M U NE 95 ATHLETISME M 1433
575 ROUZOT Denis 01:49:54 V1M ES RENAULT M 1286
576 ZIANE BRUNEEL Nadia 01:50:02 V1F - F 1814
577 DELMAS Eric 01:50:05 V1M - M 1619
578 GILGER Julia 01:50:07 SEF - F 1172
579 ESTARDIER Jean Francois 01:50:10 V1M - M 1596
580 MERITAN Lucie 01:50:19 CAF LES FURIEUX DU BITUM F 1260
581 HESTIN Solveig 01:50:33 SEF - F 1912
582 LE BORGNE Betty 01:50:34 SEF - F 1176
583 BOEHM Herve 01:50:34 SEM - M 1474
584 LOPES Didier 01:50:34 V2M - M 1472
585 LALLEMAND Marc 01:50:35 V1M - M 1475
586 SATRIN Bruno 01:50:35 V2M FOULeE D'HIPPOCRATE M 1081
587 CARRET Lydie 01:50:38 V1F AUVERS ATHLETISME F 1117
588 HEMART Sandrine 01:50:38 V1F - F 1167
589 LETERME Marie 01:50:39 V1F PLM CONFLANS F 1090
590 VINCENT Emile 01:50:39 V3M AUVERS ATHLETISME M 1116
591 DEWILDE Freddy 01:50:47 SEM - M 1943
592 DUBOIS Virginie 01:50:48 SEF - F 1939
593 VO DINH Xavier 01:50:48 SEM - M 1237
594 HENRY BIABAUD Marielle 01:50:49 V1F - F 1915
595 PICANDET Benoit 01:50:56 SEM USCPCA M 1507
596 HAMMOUDI Herve 01:50:56 V1M - M 879
597 MARTIN Pascal 01:51:01 V1M - M 1304
598 ANDRE Stephane 01:51:05 V1M - M 1558
599 PELLE Gilles 01:51:09 SEM - M 1328
600 PASCUAL Didier 01:51:14 V2M - M 1535
601 MAHIEUX Yves 01:51:15 V3M - M 1881
602 LABAT Renaud 01:51:19 SEM PACOTILLE.EU M 1900
603 DENIS Aurelien 01:51:20 SEM - F 1151
604 LOPEZ Julien 01:51:21 SEM - M 1887
605 GIREME Jean Pierre 01:51:22 V2M FOULeES ST GERMAIN E M 1501
606 TABONE Denis 01:51:28 V1M - M 1249
607 FRULEUX Nathalie 01:51:33 V1F - F 1925
608 ZGAJNAR Patrick 01:51:41 V1M AULNAY SPORT NATATIO M 1808
609 MOUDAKIR Bouchair 01:51:43 V2M JOGGING CLUB BRUYERE M 1470
610 BERTHOLON Regis 01:51:55 V2M FSCF M 1423
611 RIGOIS Olivier 01:52:01 SEM - M 1837
612 FAURE Pascale 01:52:01 V1F DOMONT ATHLETISME F 1589
613 SAILLARD Sebastien 01:52:03 SEM - M 1830
614 RUVANOT Vincent 01:52:06 SEM - M 1212
615 DASSE Rene 01:52:10 V2M U NE 95 ATHLETISME M 1456
616 FARGEAS Marc 01:52:14 V1M - M 1782
617 PAPELOREY Vincent 01:52:14 SEM TEAM RAIDLIGHT M 1846
618 LECOT Yannick 01:52:17 V3M 24H NON STOP D'EPPEV M 1498
619 OBRY Thierry 01:52:25 V1M - M 1038


ReferencementCe site est listé dans la catégorie Sport : Sports extrêmes Dictionnaire
| Accueil | La Réunion  Vue du ciel | Météo | Cyclones | Volcan | Cirques de Mafate , Cilaos , Salazie | Photos Randonnées | Randonnées Réunion: Randos Espiègle , Courses montagne | Diagonale des Fous |  Marathon des Sables | Voyages Les stats du site | Fonds écran | Plan du site | Blog de runraid | Galerie photos Sport Réunion |